sensor_id;sensor_type;location;lat;lon;timestamp;temperature;humidity
17215;DHT22;8723;51.502;6.918;2023-04-03T00:00:32;2.20;1.00
17215;DHT22;8723;51.502;6.918;2023-04-03T00:02:59;2.20;1.00
17215;DHT22;8723;51.502;6.918;2023-04-03T00:05:25;2.10;1.00
17215;DHT22;8723;51.502;6.918;2023-04-03T00:07:54;2.10;1.00
17215;DHT22;8723;51.502;6.918;2023-04-03T00:10:21;2.10;1.00
17215;DHT22;8723;51.502;6.918;2023-04-03T00:12:47;2.00;1.00
17215;DHT22;8723;51.502;6.918;2023-04-03T00:15:14;1.90;1.00
17215;DHT22;8723;51.502;6.918;2023-04-03T00:17:41;2.00;1.00
17215;DHT22;8723;51.502;6.918;2023-04-03T00:20:08;2.10;53.30
17215;DHT22;8723;51.502;6.918;2023-04-03T00:22:35;1.90;1.00
17215;DHT22;8723;51.502;6.918;2023-04-03T00:25:04;1.90;1.00
17215;DHT22;8723;51.502;6.918;2023-04-03T00:27:31;1.90;1.00
17215;DHT22;8723;51.502;6.918;2023-04-03T00:29:58;1.90;71.60
17215;DHT22;8723;51.502;6.918;2023-04-03T00:32:25;1.90;99.90
17215;DHT22;8723;51.502;6.918;2023-04-03T00:34:52;1.90;66.30
17215;DHT22;8723;51.502;6.918;2023-04-03T00:37:19;1.90;99.60
17215;DHT22;8723;51.502;6.918;2023-04-03T00:39:46;1.90;84.80
17215;DHT22;8723;51.502;6.918;2023-04-03T00:42:14;1.90;1.00
17215;DHT22;8723;51.502;6.918;2023-04-03T00:47:45;1.80;90.80
17215;DHT22;8723;51.502;6.918;2023-04-03T00:50:12;1.80;99.90
17215;DHT22;8723;51.502;6.918;2023-04-03T00:52:39;1.80;99.90
17215;DHT22;8723;51.502;6.918;2023-04-03T00:55:08;1.80;99.90
17215;DHT22;8723;51.502;6.918;2023-04-03T00:57:37;1.80;99.90
17215;DHT22;8723;51.502;6.918;2023-04-03T01:00:08;1.80;99.90
17215;DHT22;8723;51.502;6.918;2023-04-03T01:02:36;1.80;99.90
17215;DHT22;8723;51.502;6.918;2023-04-03T01:05:04;1.80;99.90
17215;DHT22;8723;51.502;6.918;2023-04-03T01:07:31;1.80;94.50
17215;DHT22;8723;51.502;6.918;2023-04-03T01:10:00;1.70;99.90
17215;DHT22;8723;51.502;6.918;2023-04-03T01:12:30;1.70;99.90
17215;DHT22;8723;51.502;6.918;2023-04-03T01:15:01;1.80;99.90
17215;DHT22;8723;51.502;6.918;2023-04-03T01:17:30;1.90;99.90
17215;DHT22;8723;51.502;6.918;2023-04-03T01:20:21;1.90;1.00
17215;DHT22;8723;51.502;6.918;2023-04-03T01:22:56;2.00;1.00
17215;DHT22;8723;51.502;6.918;2023-04-03T01:25:24;2.00;99.90
17215;DHT22;8723;51.502;6.918;2023-04-03T01:27:51;2.00;99.90
17215;DHT22;8723;51.502;6.918;2023-04-03T01:30:21;2.10;99.90
17215;DHT22;8723;51.502;6.918;2023-04-03T01:32:52;2.20;99.90
17215;DHT22;8723;51.502;6.918;2023-04-03T01:35:19;2.30;99.90
17215;DHT22;8723;51.502;6.918;2023-04-03T01:37:46;2.30;99.90
17215;DHT22;8723;51.502;6.918;2023-04-03T01:40:12;2.30;1.00
17215;DHT22;8723;51.502;6.918;2023-04-03T01:42:39;2.40;1.00
17215;DHT22;8723;51.502;6.918;2023-04-03T01:45:07;2.40;99.90
17215;DHT22;8723;51.502;6.918;2023-04-03T01:47:34;2.40;1.00
17215;DHT22;8723;51.502;6.918;2023-04-03T01:50:02;2.40;99.90
17215;DHT22;8723;51.502;6.918;2023-04-03T01:52:29;2.50;9.50
17215;DHT22;8723;51.502;6.918;2023-04-03T01:54:56;2.50;1.00
17215;DHT22;8723;51.502;6.918;2023-04-03T01:57:23;2.50;1.00
17215;DHT22;8723;51.502;6.918;2023-04-03T01:59:50;2.60;99.90
17215;DHT22;8723;51.502;6.918;2023-04-03T02:02:17;2.60;99.90
17215;DHT22;8723;51.502;6.918;2023-04-03T02:04:45;2.60;99.90
17215;DHT22;8723;51.502;6.918;2023-04-03T02:07:14;2.70;1.00
17215;DHT22;8723;51.502;6.918;2023-04-03T02:09:41;2.70;1.00
17215;DHT22;8723;51.502;6.918;2023-04-03T02:12:08;2.70;1.00
17215;DHT22;8723;51.502;6.918;2023-04-03T02:14:35;2.70;1.00
17215;DHT22;8723;51.502;6.918;2023-04-03T02:17:02;2.70;1.00
17215;DHT22;8723;51.502;6.918;2023-04-03T02:19:33;2.70;1.00
17215;DHT22;8723;51.502;6.918;2023-04-03T02:22:01;2.70;1.00
17215;DHT22;8723;51.502;6.918;2023-04-03T02:24:29;2.70;1.00
17215;DHT22;8723;51.502;6.918;2023-04-03T02:26:56;2.60;1.00
17215;DHT22;8723;51.502;6.918;2023-04-03T02:29:23;2.70;1.00
17215;DHT22;8723;51.502;6.918;2023-04-03T02:31:50;2.70;1.00
17215;DHT22;8723;51.502;6.918;2023-04-03T02:34:17;2.70;1.00
17215;DHT22;8723;51.502;6.918;2023-04-03T02:36:44;2.70;1.00
17215;DHT22;8723;51.502;6.918;2023-04-03T02:39:11;2.70;1.00
17215;DHT22;8723;51.502;6.918;2023-04-03T02:41:39;2.70;1.00
17215;DHT22;8723;51.502;6.918;2023-04-03T02:44:07;2.70;1.00
17215;DHT22;8723;51.502;6.918;2023-04-03T02:46:36;2.60;1.00
17215;DHT22;8723;51.502;6.918;2023-04-03T02:49:03;2.60;1.00
17215;DHT22;8723;51.502;6.918;2023-04-03T02:51:30;2.60;1.00
17215;DHT22;8723;51.502;6.918;2023-04-03T02:53:57;2.60;1.00
17215;DHT22;8723;51.502;6.918;2023-04-03T02:56:25;2.50;1.00
17215;DHT22;8723;51.502;6.918;2023-04-03T02:58:53;2.60;1.00
17215;DHT22;8723;51.502;6.918;2023-04-03T03:01:20;2.50;1.00
17215;DHT22;8723;51.502;6.918;2023-04-03T03:03:47;2.50;99.90
17215;DHT22;8723;51.502;6.918;2023-04-03T03:06:16;2.60;1.00
17215;DHT22;8723;51.502;6.918;2023-04-03T03:08:43;2.50;1.00
17215;DHT22;8723;51.502;6.918;2023-04-03T03:11:10;2.50;1.00
17215;DHT22;8723;51.502;6.918;2023-04-03T03:13:38;2.50;1.00
17215;DHT22;8723;51.502;6.918;2023-04-03T03:16:07;2.50;1.00
17215;DHT22;8723;51.502;6.918;2023-04-03T03:18:34;2.60;1.00
17215;DHT22;8723;51.502;6.918;2023-04-03T03:21:02;2.50;1.00
17215;DHT22;8723;51.502;6.918;2023-04-03T03:23:30;2.50;99.90
17215;DHT22;8723;51.502;6.918;2023-04-03T03:25:58;2.60;99.90
17215;DHT22;8723;51.502;6.918;2023-04-03T03:28:26;2.50;99.90
17215;DHT22;8723;51.502;6.918;2023-04-03T03:30:53;2.50;99.90
17215;DHT22;8723;51.502;6.918;2023-04-03T03:33:21;2.50;1.00
17215;DHT22;8723;51.502;6.918;2023-04-03T03:35:48;2.50;99.90
17215;DHT22;8723;51.502;6.918;2023-04-03T03:38:15;2.60;99.90
17215;DHT22;8723;51.502;6.918;2023-04-03T03:40:42;2.50;99.90
17215;DHT22;8723;51.502;6.918;2023-04-03T03:43:09;2.50;99.90
17215;DHT22;8723;51.502;6.918;2023-04-03T03:45:36;2.50;99.90
17215;DHT22;8723;51.502;6.918;2023-04-03T03:48:03;2.50;99.90
17215;DHT22;8723;51.502;6.918;2023-04-03T03:50:32;2.50;99.90
17215;DHT22;8723;51.502;6.918;2023-04-03T03:52:59;2.40;99.90
17215;DHT22;8723;51.502;6.918;2023-04-03T03:55:26;2.40;99.90
17215;DHT22;8723;51.502;6.918;2023-04-03T03:57:53;2.40;99.90
17215;DHT22;8723;51.502;6.918;2023-04-03T04:00:20;2.40;99.90
17215;DHT22;8723;51.502;6.918;2023-04-03T04:02:47;2.40;99.90
17215;DHT22;8723;51.502;6.918;2023-04-03T04:05:14;2.40;99.90
17215;DHT22;8723;51.502;6.918;2023-04-03T04:07:43;2.40;99.90
17215;DHT22;8723;51.502;6.918;2023-04-03T04:10:10;2.40;99.90
17215;DHT22;8723;51.502;6.918;2023-04-03T04:12:39;2.40;99.90
17215;DHT22;8723;51.502;6.918;2023-04-03T04:15:07;2.30;99.90
17215;DHT22;8723;51.502;6.918;2023-04-03T04:17:34;2.30;99.90
17215;DHT22;8723;51.502;6.918;2023-04-03T04:20:01;2.30;99.90
17215;DHT22;8723;51.502;6.918;2023-04-03T04:22:28;2.20;99.90
17215;DHT22;8723;51.502;6.918;2023-04-03T04:24:56;2.20;99.90
17215;DHT22;8723;51.502;6.918;2023-04-03T04:27:23;2.20;99.90
17215;DHT22;8723;51.502;6.918;2023-04-03T04:29:50;2.20;99.90
17215;DHT22;8723;51.502;6.918;2023-04-03T04:32:16;2.20;99.90
17215;DHT22;8723;51.502;6.918;2023-04-03T04:34:43;2.20;99.90
17215;DHT22;8723;51.502;6.918;2023-04-03T04:37:11;2.20;99.90
17215;DHT22;8723;51.502;6.918;2023-04-03T04:39:38;2.20;99.90
17215;DHT22;8723;51.502;6.918;2023-04-03T04:42:06;2.20;99.90
17215;DHT22;8723;51.502;6.918;2023-04-03T04:44:38;2.20;99.90
17215;DHT22;8723;51.502;6.918;2023-04-03T04:47:05;2.20;1.00
17215;DHT22;8723;51.502;6.918;2023-04-03T04:49:32;2.10;99.90
17215;DHT22;8723;51.502;6.918;2023-04-03T04:51:59;2.10;1.00
17215;DHT22;8723;51.502;6.918;2023-04-03T04:54:26;2.10;1.00
17215;DHT22;8723;51.502;6.918;2023-04-03T04:56:53;2.10;1.00
17215;DHT22;8723;51.502;6.918;2023-04-03T04:59:22;2.10;99.90
17215;DHT22;8723;51.502;6.918;2023-04-03T05:01:49;2.00;1.00
17215;DHT22;8723;51.502;6.918;2023-04-03T05:04:16;2.00;1.00
17215;DHT22;8723;51.502;6.918;2023-04-03T05:06:43;2.10;1.00
17215;DHT22;8723;51.502;6.918;2023-04-03T05:09:10;2.00;1.00
17215;DHT22;8723;51.502;6.918;2023-04-03T05:11:37;2.00;1.00
17215;DHT22;8723;51.502;6.918;2023-04-03T05:14:05;2.00;1.00
17215;DHT22;8723;51.502;6.918;2023-04-03T05:16:33;2.00;1.00
17215;DHT22;8723;51.502;6.918;2023-04-03T05:19:01;1.90;1.00
17215;DHT22;8723;51.502;6.918;2023-04-03T05:21:27;1.90;1.00
17215;DHT22;8723;51.502;6.918;2023-04-03T05:23:57;1.80;1.00
17215;DHT22;8723;51.502;6.918;2023-04-03T05:26:24;1.80;1.00
17215;DHT22;8723;51.502;6.918;2023-04-03T05:28:52;1.80;1.00
17215;DHT22;8723;51.502;6.918;2023-04-03T05:31:18;1.80;1.00
17215;DHT22;8723;51.502;6.918;2023-04-03T05:33:48;1.90;1.00
17215;DHT22;8723;51.502;6.918;2023-04-03T05:36:15;1.90;1.00
17215;DHT22;8723;51.502;6.918;2023-04-03T05:38:42;1.80;1.00
17215;DHT22;8723;51.502;6.918;2023-04-03T05:41:10;1.70;1.00
17215;DHT22;8723;51.502;6.918;2023-04-03T05:43:37;1.70;1.00
17215;DHT22;8723;51.502;6.918;2023-04-03T05:46:09;1.80;1.00
17215;DHT22;8723;51.502;6.918;2023-04-03T05:48:36;1.80;1.00
17215;DHT22;8723;51.502;6.918;2023-04-03T05:51:06;1.80;1.00
17215;DHT22;8723;51.502;6.918;2023-04-03T05:53:35;1.80;1.00
17215;DHT22;8723;51.502;6.918;2023-04-03T05:56:02;1.90;1.00
17215;DHT22;8723;51.502;6.918;2023-04-03T05:58:30;1.90;1.00
17215;DHT22;8723;51.502;6.918;2023-04-03T06:00:56;1.90;1.00
17215;DHT22;8723;51.502;6.918;2023-04-03T06:03:24;2.00;99.90
17215;DHT22;8723;51.502;6.918;2023-04-03T06:05:51;2.00;99.90
17215;DHT22;8723;51.502;6.918;2023-04-03T06:08:22;2.10;99.90
17215;DHT22;8723;51.502;6.918;2023-04-03T06:10:49;2.20;99.90
17215;DHT22;8723;51.502;6.918;2023-04-03T06:13:17;2.20;99.90
17215;DHT22;8723;51.502;6.918;2023-04-03T06:15:43;2.20;99.90
17215;DHT22;8723;51.502;6.918;2023-04-03T06:18:10;2.30;99.90
17215;DHT22;8723;51.502;6.918;2023-04-03T06:20:37;2.30;99.90
17215;DHT22;8723;51.502;6.918;2023-04-03T06:23:04;2.40;99.90
17215;DHT22;8723;51.502;6.918;2023-04-03T06:25:33;2.40;99.90
17215;DHT22;8723;51.502;6.918;2023-04-03T06:28:00;2.50;99.90
17215;DHT22;8723;51.502;6.918;2023-04-03T06:30:27;2.40;99.90
17215;DHT22;8723;51.502;6.918;2023-04-03T06:32:54;2.50;99.90
17215;DHT22;8723;51.502;6.918;2023-04-03T06:35:22;2.50;99.90
17215;DHT22;8723;51.502;6.918;2023-04-03T06:37:50;2.50;99.90
17215;DHT22;8723;51.502;6.918;2023-04-03T06:40:21;2.50;99.90
17215;DHT22;8723;51.502;6.918;2023-04-03T06:42:49;2.50;99.90
17215;DHT22;8723;51.502;6.918;2023-04-03T06:45:17;2.60;99.90
17215;DHT22;8723;51.502;6.918;2023-04-03T06:47:44;2.60;99.90
17215;DHT22;8723;51.502;6.918;2023-04-03T06:50:12;2.60;99.90
17215;DHT22;8723;51.502;6.918;2023-04-03T06:52:40;2.70;99.90
17215;DHT22;8723;51.502;6.918;2023-04-03T06:55:08;2.70;99.90
17215;DHT22;8723;51.502;6.918;2023-04-03T06:57:35;2.70;99.90
17215;DHT22;8723;51.502;6.918;2023-04-03T07:00:05;2.70;99.90
17215;DHT22;8723;51.502;6.918;2023-04-03T07:02:34;2.80;99.90
17215;DHT22;8723;51.502;6.918;2023-04-03T07:05:01;2.80;99.90
17215;DHT22;8723;51.502;6.918;2023-04-03T07:07:29;2.90;99.90
17215;DHT22;8723;51.502;6.918;2023-04-03T07:09:56;3.00;99.90
17215;DHT22;8723;51.502;6.918;2023-04-03T07:12:22;3.00;99.90
17215;DHT22;8723;51.502;6.918;2023-04-03T07:14:49;3.10;99.90
17215;DHT22;8723;51.502;6.918;2023-04-03T07:17:17;3.10;99.90
17215;DHT22;8723;51.502;6.918;2023-04-03T07:19:45;3.10;91.60
17215;DHT22;8723;51.502;6.918;2023-04-03T07:22:12;3.10;79.40
17215;DHT22;8723;51.502;6.918;2023-04-03T07:24:39;3.20;83.40
17215;DHT22;8723;51.502;6.918;2023-04-03T07:27:06;3.20;93.30
17215;DHT22;8723;51.502;6.918;2023-04-03T07:29:34;3.30;84.10
17215;DHT22;8723;51.502;6.918;2023-04-03T07:32:01;3.30;81.00
17215;DHT22;8723;51.502;6.918;2023-04-03T07:34:30;3.40;75.80
17215;DHT22;8723;51.502;6.918;2023-04-03T07:36:58;3.40;66.40
17215;DHT22;8723;51.502;6.918;2023-04-03T07:39:25;3.50;48.30
17215;DHT22;8723;51.502;6.918;2023-04-03T07:41:54;3.50;40.90
17215;DHT22;8723;51.502;6.918;2023-04-03T07:44:21;3.60;47.80
17215;DHT22;8723;51.502;6.918;2023-04-03T07:46:48;3.60;36.40
17215;DHT22;8723;51.502;6.918;2023-04-03T07:49:16;3.70;37.60
17215;DHT22;8723;51.502;6.918;2023-04-03T07:51:44;3.70;34.20
17215;DHT22;8723;51.502;6.918;2023-04-03T07:54:12;3.80;35.00
17215;DHT22;8723;51.502;6.918;2023-04-03T07:56:39;3.90;24.40
17215;DHT22;8723;51.502;6.918;2023-04-03T07:59:08;3.90;21.90
17215;DHT22;8723;51.502;6.918;2023-04-03T08:01:36;4.00;19.60
17215;DHT22;8723;51.502;6.918;2023-04-03T08:04:02;4.00;17.10
17215;DHT22;8723;51.502;6.918;2023-04-03T08:06:31;4.10;13.30
17215;DHT22;8723;51.502;6.918;2023-04-03T08:09:02;4.20;4.30
17215;DHT22;8723;51.502;6.918;2023-04-03T08:11:29;4.20;1.00
17215;DHT22;8723;51.502;6.918;2023-04-03T08:13:56;4.30;1.00
17215;DHT22;8723;51.502;6.918;2023-04-03T08:16:24;4.30;1.00
17215;DHT22;8723;51.502;6.918;2023-04-03T08:18:52;4.40;1.00
17215;DHT22;8723;51.502;6.918;2023-04-03T08:21:19;4.40;1.00
17215;DHT22;8723;51.502;6.918;2023-04-03T08:23:48;4.50;1.00
17215;DHT22;8723;51.502;6.918;2023-04-03T08:26:19;4.60;1.00
17215;DHT22;8723;51.502;6.918;2023-04-03T08:28:46;4.80;1.00
17215;DHT22;8723;51.502;6.918;2023-04-03T08:31:16;4.80;1.00
17215;DHT22;8723;51.502;6.918;2023-04-03T08:33:44;4.80;1.00
17215;DHT22;8723;51.502;6.918;2023-04-03T08:36:18;4.90;1.00
17215;DHT22;8723;51.502;6.918;2023-04-03T08:38:46;5.00;1.00
17215;DHT22;8723;51.502;6.918;2023-04-03T08:41:19;5.10;1.00
17215;DHT22;8723;51.502;6.918;2023-04-03T08:43:58;5.20;1.00
17215;DHT22;8723;51.502;6.918;2023-04-03T08:46:36;5.20;1.00
17215;DHT22;8723;51.502;6.918;2023-04-03T08:49:11;5.30;1.00
17215;DHT22;8723;51.502;6.918;2023-04-03T08:51:47;5.40;1.00
17215;DHT22;8723;51.502;6.918;2023-04-03T08:54:27;5.50;1.00
17215;DHT22;8723;51.502;6.918;2023-04-03T08:56:58;5.60;1.00
17215;DHT22;8723;51.502;6.918;2023-04-03T08:59:30;5.70;1.00
17215;DHT22;8723;51.502;6.918;2023-04-03T09:02:02;5.90;1.00
17215;DHT22;8723;51.502;6.918;2023-04-03T09:04:32;5.90;1.00
17215;DHT22;8723;51.502;6.918;2023-04-03T09:07:05;6.10;1.00
17215;DHT22;8723;51.502;6.918;2023-04-03T09:09:36;6.10;1.00
17215;DHT22;8723;51.502;6.918;2023-04-03T09:12:15;6.30;1.00
17215;DHT22;8723;51.502;6.918;2023-04-03T09:14:47;6.40;1.00
17215;DHT22;8723;51.502;6.918;2023-04-03T09:17:23;6.40;1.00
17215;DHT22;8723;51.502;6.918;2023-04-03T09:19:58;6.50;1.00
17215;DHT22;8723;51.502;6.918;2023-04-03T09:22:27;6.60;1.00
17215;DHT22;8723;51.502;6.918;2023-04-03T09:24:58;6.70;1.00
17215;DHT22;8723;51.502;6.918;2023-04-03T09:27:28;6.90;1.00
17215;DHT22;8723;51.502;6.918;2023-04-03T09:29:56;6.80;1.00
17215;DHT22;8723;51.502;6.918;2023-04-03T09:32:27;6.90;1.00
17215;DHT22;8723;51.502;6.918;2023-04-03T09:34:57;6.80;1.00
17215;DHT22;8723;51.502;6.918;2023-04-03T09:37:39;6.90;1.00
17215;DHT22;8723;51.502;6.918;2023-04-03T09:40:28;6.90;1.00
17215;DHT22;8723;51.502;6.918;2023-04-03T09:42:59;7.00;1.00
17215;DHT22;8723;51.502;6.918;2023-04-03T09:45:28;7.00;1.00
17215;DHT22;8723;51.502;6.918;2023-04-03T09:48:08;7.20;1.00
17215;DHT22;8723;51.502;6.918;2023-04-03T09:50:36;7.40;1.00
17215;DHT22;8723;51.502;6.918;2023-04-03T09:53:07;7.50;1.00
17215;DHT22;8723;51.502;6.918;2023-04-03T09:55:50;7.40;1.00
17215;DHT22;8723;51.502;6.918;2023-04-03T09:58:27;7.40;1.00
17215;DHT22;8723;51.502;6.918;2023-04-03T10:00:55;7.50;1.00
17215;DHT22;8723;51.502;6.918;2023-04-03T10:03:29;7.40;1.00
17215;DHT22;8723;51.502;6.918;2023-04-03T10:05:58;7.40;1.00
17215;DHT22;8723;51.502;6.918;2023-04-03T10:08:28;7.40;1.00
17215;DHT22;8723;51.502;6.918;2023-04-03T10:11:14;7.40;1.00
17215;DHT22;8723;51.502;6.918;2023-04-03T10:13:53;7.60;1.00
17215;DHT22;8723;51.502;6.918;2023-04-03T10:16:25;7.70;1.00
17215;DHT22;8723;51.502;6.918;2023-04-03T10:19:04;7.80;1.00
17215;DHT22;8723;51.502;6.918;2023-04-03T10:21:40;7.90;1.00
17215;DHT22;8723;51.502;6.918;2023-04-03T10:24:11;7.90;1.00
17215;DHT22;8723;51.502;6.918;2023-04-03T10:26:46;8.00;1.00
17215;DHT22;8723;51.502;6.918;2023-04-03T10:29:32;8.00;1.00
17215;DHT22;8723;51.502;6.918;2023-04-03T10:32:12;8.00;1.00
17215;DHT22;8723;51.502;6.918;2023-04-03T10:34:43;8.10;1.00
17215;DHT22;8723;51.502;6.918;2023-04-03T10:37:17;8.10;1.00
17215;DHT22;8723;51.502;6.918;2023-04-03T10:39:52;8.00;1.00
17215;DHT22;8723;51.502;6.918;2023-04-03T10:42:27;8.10;1.00
17215;DHT22;8723;51.502;6.918;2023-04-03T10:45:18;8.20;1.00
17215;DHT22;8723;51.502;6.918;2023-04-03T10:47:51;8.20;1.00
17215;DHT22;8723;51.502;6.918;2023-04-03T10:50:31;8.50;1.00
17215;DHT22;8723;51.502;6.918;2023-04-03T10:53:07;8.40;1.00
17215;DHT22;8723;51.502;6.918;2023-04-03T10:55:39;8.60;1.00
17215;DHT22;8723;51.502;6.918;2023-04-03T10:58:16;8.50;1.00
17215;DHT22;8723;51.502;6.918;2023-04-03T11:00:49;8.40;1.00
17215;DHT22;8723;51.502;6.918;2023-04-03T11:03:26;8.40;1.00
17215;DHT22;8723;51.502;6.918;2023-04-03T11:05:55;8.60;1.00
17215;DHT22;8723;51.502;6.918;2023-04-03T11:08:26;8.70;1.00
17215;DHT22;8723;51.502;6.918;2023-04-03T11:10:55;8.60;1.00
17215;DHT22;8723;51.502;6.918;2023-04-03T11:13:26;8.70;1.00
17215;DHT22;8723;51.502;6.918;2023-04-03T11:15:58;9.00;1.00
17215;DHT22;8723;51.502;6.918;2023-04-03T11:18:29;8.80;1.00
17215;DHT22;8723;51.502;6.918;2023-04-03T11:21:02;8.90;1.00
17215;DHT22;8723;51.502;6.918;2023-04-03T11:23:32;9.00;1.00
17215;DHT22;8723;51.502;6.918;2023-04-03T11:26:10;8.80;1.00
17215;DHT22;8723;51.502;6.918;2023-04-03T11:28:38;8.80;1.00
17215;DHT22;8723;51.502;6.918;2023-04-03T11:31:15;9.10;1.00
17215;DHT22;8723;51.502;6.918;2023-04-03T11:33:51;9.30;1.00
17215;DHT22;8723;51.502;6.918;2023-04-03T11:36:22;9.40;1.00
17215;DHT22;8723;51.502;6.918;2023-04-03T11:38:53;9.40;1.00
17215;DHT22;8723;51.502;6.918;2023-04-03T11:41:26;9.40;1.00
17215;DHT22;8723;51.502;6.918;2023-04-03T11:44:00;9.50;1.00
17215;DHT22;8723;51.502;6.918;2023-04-03T11:46:51;9.40;1.00
17215;DHT22;8723;51.502;6.918;2023-04-03T11:49:53;9.30;1.00
17215;DHT22;8723;51.502;6.918;2023-04-03T11:55:42;9.40;1.00
17215;DHT22;8723;51.502;6.918;2023-04-03T11:58:12;9.40;1.00
17215;DHT22;8723;51.502;6.918;2023-04-03T12:01:00;9.50;1.00
17215;DHT22;8723;51.502;6.918;2023-04-03T12:12:31;9.10;1.00
17215;DHT22;8723;51.502;6.918;2023-04-03T12:15:25;9.30;1.00
17215;DHT22;8723;51.502;6.918;2023-04-03T12:17:52;9.20;1.00
17215;DHT22;8723;51.502;6.918;2023-04-03T12:23:35;9.20;1.00
17215;DHT22;8723;51.502;6.918;2023-04-03T12:26:19;9.10;1.00
17215;DHT22;8723;51.502;6.918;2023-04-03T12:28:49;9.10;1.00
17215;DHT22;8723;51.502;6.918;2023-04-03T12:31:19;9.00;1.00
17215;DHT22;8723;51.502;6.918;2023-04-03T12:34:13;9.00;1.00
17215;DHT22;8723;51.502;6.918;2023-04-03T12:36:48;9.10;1.00
17215;DHT22;8723;51.502;6.918;2023-04-03T12:39:43;9.20;1.00
17215;DHT22;8723;51.502;6.918;2023-04-03T12:42:31;9.10;1.00
17215;DHT22;8723;51.502;6.918;2023-04-03T12:45:03;9.10;1.00
17215;DHT22;8723;51.502;6.918;2023-04-03T12:47:37;9.20;1.00
17215;DHT22;8723;51.502;6.918;2023-04-03T12:50:17;9.20;1.00
17215;DHT22;8723;51.502;6.918;2023-04-03T12:52:51;9.20;1.00
17215;DHT22;8723;51.502;6.918;2023-04-03T12:55:22;9.10;1.00
17215;DHT22;8723;51.502;6.918;2023-04-03T12:57:49;9.00;1.00
17215;DHT22;8723;51.502;6.918;2023-04-03T13:00:28;8.90;1.00
17215;DHT22;8723;51.502;6.918;2023-04-03T13:02:56;8.90;1.00
17215;DHT22;8723;51.502;6.918;2023-04-03T13:05:23;8.90;1.00
17215;DHT22;8723;51.502;6.918;2023-04-03T13:07:55;9.00;1.00
17215;DHT22;8723;51.502;6.918;2023-04-03T13:10:25;9.00;1.00
17215;DHT22;8723;51.502;6.918;2023-04-03T13:12:54;9.00;1.00
17215;DHT22;8723;51.502;6.918;2023-04-03T13:15:23;9.10;1.00
17215;DHT22;8723;51.502;6.918;2023-04-03T13:17:51;9.10;1.00
17215;DHT22;8723;51.502;6.918;2023-04-03T13:20:22;9.10;1.00
17215;DHT22;8723;51.502;6.918;2023-04-03T13:22:53;9.00;1.00
17215;DHT22;8723;51.502;6.918;2023-04-03T13:25:25;9.00;1.00
17215;DHT22;8723;51.502;6.918;2023-04-03T13:27:53;8.90;1.00
17215;DHT22;8723;51.502;6.918;2023-04-03T13:30:25;8.90;1.00
17215;DHT22;8723;51.502;6.918;2023-04-03T13:32:54;8.80;1.00
17215;DHT22;8723;51.502;6.918;2023-04-03T13:35:31;8.80;1.00
17215;DHT22;8723;51.502;6.918;2023-04-03T13:38:01;8.90;1.00
17215;DHT22;8723;51.502;6.918;2023-04-03T13:40:29;8.90;1.00
17215;DHT22;8723;51.502;6.918;2023-04-03T13:43:02;8.80;1.00
17215;DHT22;8723;51.502;6.918;2023-04-03T13:45:30;8.80;1.00
17215;DHT22;8723;51.502;6.918;2023-04-03T13:48:10;8.90;1.00
17215;DHT22;8723;51.502;6.918;2023-04-03T13:50:51;8.80;1.00
17215;DHT22;8723;51.502;6.918;2023-04-03T13:53:20;8.80;1.00
17215;DHT22;8723;51.502;6.918;2023-04-03T13:55:58;8.90;1.00
17215;DHT22;8723;51.502;6.918;2023-04-03T13:58:26;8.90;1.00
17215;DHT22;8723;51.502;6.918;2023-04-03T14:00:55;8.90;1.00
17215;DHT22;8723;51.502;6.918;2023-04-03T14:03:29;8.90;1.00
17215;DHT22;8723;51.502;6.918;2023-04-03T14:05:57;8.90;1.00
17215;DHT22;8723;51.502;6.918;2023-04-03T14:08:25;8.90;1.00
17215;DHT22;8723;51.502;6.918;2023-04-03T14:10:52;8.80;1.00
17215;DHT22;8723;51.502;6.918;2023-04-03T14:13:21;8.80;1.00
17215;DHT22;8723;51.502;6.918;2023-04-03T14:15:49;8.80;1.00
17215;DHT22;8723;51.502;6.918;2023-04-03T14:18:22;8.70;1.00
17215;DHT22;8723;51.502;6.918;2023-04-03T14:20:49;8.70;1.00
17215;DHT22;8723;51.502;6.918;2023-04-03T14:23:16;8.70;1.00
17215;DHT22;8723;51.502;6.918;2023-04-03T14:25:43;8.80;1.00
17215;DHT22;8723;51.502;6.918;2023-04-03T14:28:15;8.70;1.00
17215;DHT22;8723;51.502;6.918;2023-04-03T14:30:45;8.70;1.00
17215;DHT22;8723;51.502;6.918;2023-04-03T14:33:15;8.60;1.00
17215;DHT22;8723;51.502;6.918;2023-04-03T14:35:43;8.50;1.00
17215;DHT22;8723;51.502;6.918;2023-04-03T14:38:21;8.40;1.00
17215;DHT22;8723;51.502;6.918;2023-04-03T14:40:50;8.40;1.00
17215;DHT22;8723;51.502;6.918;2023-04-03T14:43:17;8.50;1.00
17215;DHT22;8723;51.502;6.918;2023-04-03T14:45:47;8.40;1.00
17215;DHT22;8723;51.502;6.918;2023-04-03T14:48:18;8.40;1.00
17215;DHT22;8723;51.502;6.918;2023-04-03T14:50:46;8.40;1.00
17215;DHT22;8723;51.502;6.918;2023-04-03T14:53:13;8.40;1.00
17215;DHT22;8723;51.502;6.918;2023-04-03T14:55:42;8.50;1.00
17215;DHT22;8723;51.502;6.918;2023-04-03T14:58:12;8.50;1.00
17215;DHT22;8723;51.502;6.918;2023-04-03T15:00:40;8.40;1.00
17215;DHT22;8723;51.502;6.918;2023-04-03T15:03:13;8.40;1.00
17215;DHT22;8723;51.502;6.918;2023-04-03T15:05:41;8.40;1.00
17215;DHT22;8723;51.502;6.918;2023-04-03T15:08:18;8.40;1.00
17215;DHT22;8723;51.502;6.918;2023-04-03T15:10:46;8.30;1.00
17215;DHT22;8723;51.502;6.918;2023-04-03T15:13:13;8.30;1.00
17215;DHT22;8723;51.502;6.918;2023-04-03T15:15:40;8.20;1.00
17215;DHT22;8723;51.502;6.918;2023-04-03T15:18:14;8.20;1.00
17215;DHT22;8723;51.502;6.918;2023-04-03T15:20:41;8.20;1.00
17215;DHT22;8723;51.502;6.918;2023-04-03T15:23:10;8.20;1.00
17215;DHT22;8723;51.502;6.918;2023-04-03T15:25:38;8.20;1.00
17215;DHT22;8723;51.502;6.918;2023-04-03T15:28:06;8.30;1.00
17215;DHT22;8723;51.502;6.918;2023-04-03T15:30:33;8.20;1.00
17215;DHT22;8723;51.502;6.918;2023-04-03T15:33:03;8.20;1.00
17215;DHT22;8723;51.502;6.918;2023-04-03T15:35:31;8.20;1.00
17215;DHT22;8723;51.502;6.918;2023-04-03T15:37:58;8.30;1.00
17215;DHT22;8723;51.502;6.918;2023-04-03T15:40:25;8.20;1.00
17215;DHT22;8723;51.502;6.918;2023-04-03T15:42:52;8.20;1.00
17215;DHT22;8723;51.502;6.918;2023-04-03T15:45:19;8.10;1.00
17215;DHT22;8723;51.502;6.918;2023-04-03T15:47:46;8.10;1.00
17215;DHT22;8723;51.502;6.918;2023-04-03T15:50:13;8.00;1.00
17215;DHT22;8723;51.502;6.918;2023-04-03T15:52:42;8.00;1.00
17215;DHT22;8723;51.502;6.918;2023-04-03T15:55:09;8.00;1.00
17215;DHT22;8723;51.502;6.918;2023-04-03T15:57:36;8.00;1.00
17215;DHT22;8723;51.502;6.918;2023-04-03T16:00:03;8.00;1.00
17215;DHT22;8723;51.502;6.918;2023-04-03T16:02:30;8.00;1.00
17215;DHT22;8723;51.502;6.918;2023-04-03T16:04:58;8.00;1.00
17215;DHT22;8723;51.502;6.918;2023-04-03T16:07:25;7.90;1.00
17215;DHT22;8723;51.502;6.918;2023-04-03T16:09:54;7.90;1.00
17215;DHT22;8723;51.502;6.918;2023-04-03T16:12:21;7.80;1.00
17215;DHT22;8723;51.502;6.918;2023-04-03T16:14:47;7.90;1.00
17215;DHT22;8723;51.502;6.918;2023-04-03T16:17:14;7.90;1.00
17215;DHT22;8723;51.502;6.918;2023-04-03T16:19:41;7.90;1.00
17215;DHT22;8723;51.502;6.918;2023-04-03T16:22:08;7.80;1.00
17215;DHT22;8723;51.502;6.918;2023-04-03T16:24:35;7.80;1.00
17215;DHT22;8723;51.502;6.918;2023-04-03T16:27:05;7.70;1.00
17215;DHT22;8723;51.502;6.918;2023-04-03T16:29:31;7.70;1.00
17215;DHT22;8723;51.502;6.918;2023-04-03T16:31:58;7.70;1.00
17215;DHT22;8723;51.502;6.918;2023-04-03T16:34:26;7.70;1.00
17215;DHT22;8723;51.502;6.918;2023-04-03T16:36:55;7.60;1.00
17215;DHT22;8723;51.502;6.918;2023-04-03T16:39:22;7.60;1.00
17215;DHT22;8723;51.502;6.918;2023-04-03T16:41:49;7.60;1.00
17215;DHT22;8723;51.502;6.918;2023-04-03T16:44:17;7.60;1.00
17215;DHT22;8723;51.502;6.918;2023-04-03T16:46:44;7.50;1.00